createdAt,value
2023-02-19T00:00:57.520Z,5.90
2023-02-19T00:03:30.641Z,5.40
2023-02-19T00:06:06.502Z,6.90
2023-02-19T00:08:40.055Z,5.10
2023-02-19T00:11:15.316Z,5.70
2023-02-19T00:13:48.908Z,6.20
2023-02-19T00:16:25.828Z,5.50
2023-02-19T00:18:59.212Z,5.50
2023-02-19T00:21:33.009Z,5.70
2023-02-19T00:24:08.713Z,5.90
2023-02-19T00:26:42.321Z,5.80
2023-02-19T00:29:17.930Z,6.40
2023-02-19T00:31:51.046Z,5.50
2023-02-19T00:34:25.395Z,7.60
2023-02-19T00:36:58.344Z,5.90
2023-02-19T00:39:31.246Z,6.40
2023-02-19T00:42:04.059Z,7.00
2023-02-19T00:44:38.669Z,6.50
2023-02-19T00:47:11.451Z,5.70
2023-02-19T00:49:45.203Z,6.50
2023-02-19T00:52:18.012Z,6.80
2023-02-19T00:54:51.316Z,6.40
2023-02-19T00:57:24.416Z,6.00
2023-02-19T00:59:58.247Z,6.70
2023-02-19T01:02:31.176Z,7.90
2023-02-19T01:05:04.385Z,6.80
2023-02-19T01:07:39.646Z,6.60
2023-02-19T01:10:14.334Z,7.30
2023-02-19T01:12:47.663Z,6.30
2023-02-19T01:15:20.694Z,6.80
2023-02-19T01:17:55.603Z,5.80
2023-02-19T01:20:29.757Z,6.60
2023-02-19T01:23:02.627Z,6.40
2023-02-19T01:25:35.938Z,5.90
2023-02-19T01:28:08.986Z,7.00
2023-02-19T01:30:41.963Z,6.50
2023-02-19T01:33:14.920Z,7.90
2023-02-19T01:35:47.705Z,6.20
2023-02-19T01:38:20.609Z,6.50
2023-02-19T01:40:59.139Z,7.70
2023-02-19T01:43:32.636Z,8.10
2023-02-19T01:46:06.746Z,7.60
2023-02-19T01:48:40.889Z,7.50
2023-02-19T01:51:16.348Z,7.50
2023-02-19T01:53:51.419Z,8.10
2023-02-19T01:56:24.874Z,6.70
2023-02-19T01:58:58.380Z,7.60
2023-02-19T02:01:32.085Z,7.00
2023-02-19T02:04:05.067Z,7.10
2023-02-19T02:06:40.474Z,7.20
2023-02-19T02:09:30.863Z,7.20
2023-02-19T02:12:04.931Z,6.80
2023-02-19T02:14:39.393Z,6.70
2023-02-19T02:17:20.819Z,5.60
2023-02-19T02:20:11.427Z,6.30
2023-02-19T02:22:46.103Z,6.20
2023-02-19T02:25:45.116Z,5.70
2023-02-19T02:28:32.186Z,6.80
2023-02-19T02:31:07.917Z,6.10
2023-02-19T02:33:46.022Z,5.80
2023-02-19T02:36:20.563Z,4.70
2023-02-19T02:39:00.739Z,5.50
2023-02-19T02:41:33.852Z,5.90
2023-02-19T02:44:07.608Z,6.10
2023-02-19T02:46:42.176Z,6.10
2023-02-19T02:49:21.327Z,5.90
2023-02-19T02:51:55.558Z,5.80
2023-02-19T02:54:49.022Z,5.70
2023-02-19T02:57:22.406Z,7.10
2023-02-19T02:59:58.833Z,5.80
2023-02-19T03:02:32.143Z,6.30
2023-02-19T03:05:24.874Z,7.40
2023-02-19T03:07:59.986Z,6.90
2023-02-19T03:10:35.643Z,7.80
2023-02-19T03:13:27.660Z,6.00
2023-02-19T03:19:10.873Z,7.20
2023-02-19T03:21:45.912Z,6.90
2023-02-19T03:24:36.412Z,5.70
2023-02-19T03:27:10.080Z,7.10
2023-02-19T03:29:47.626Z,6.50
2023-02-19T03:32:22.998Z,7.00
2023-02-19T03:34:58.698Z,8.00
2023-02-19T03:37:33.368Z,7.00
2023-02-19T03:40:06.952Z,8.50
2023-02-19T03:42:43.489Z,7.60
2023-02-19T03:45:29.036Z,7.20
2023-02-19T03:48:08.814Z,8.20
2023-02-19T03:50:45.705Z,6.60
2023-02-19T03:53:23.322Z,7.40
2023-02-19T03:56:04.933Z,7.50
2023-02-19T03:58:43.612Z,6.80
2023-02-19T04:01:24.073Z,7.40
2023-02-19T04:03:58.157Z,7.20
2023-02-19T04:06:33.065Z,6.10
2023-02-19T04:09:07.945Z,5.40
2023-02-19T04:11:41.007Z,6.80
2023-02-19T04:14:17.943Z,6.50
2023-02-19T04:16:51.736Z,6.80
2023-02-19T04:19:25.206Z,6.30
2023-02-19T04:21:58.107Z,5.60
2023-02-19T04:24:33.092Z,6.20
2023-02-19T04:27:06.337Z,5.40
2023-02-19T04:29:44.685Z,6.10
2023-02-19T04:32:17.854Z,6.60
2023-02-19T04:34:51.230Z,5.20
2023-02-19T04:37:25.447Z,5.20
2023-02-19T04:39:58.929Z,6.30
2023-02-19T04:42:32.453Z,5.20
2023-02-19T04:45:05.388Z,5.30
2023-02-19T04:47:38.345Z,5.30
2023-02-19T04:50:11.933Z,5.60
2023-02-19T04:52:45.141Z,5.30
2023-02-19T04:55:18.050Z,5.10
2023-02-19T04:57:50.978Z,5.40
2023-02-19T05:00:24.157Z,5.30
2023-02-19T05:02:57.208Z,5.50
2023-02-19T05:05:30.062Z,4.90
2023-02-19T05:08:02.762Z,5.10
2023-02-19T05:10:36.168Z,5.50
2023-02-19T05:13:10.902Z,5.70
2023-02-19T05:15:44.054Z,6.10
2023-02-19T05:18:17.344Z,5.80
2023-02-19T05:20:50.761Z,5.70
2023-02-19T05:23:24.535Z,5.30
2023-02-19T05:25:58.570Z,5.60
2023-02-19T05:28:31.324Z,4.90
2023-02-19T05:31:08.390Z,5.40
2023-02-19T05:33:43.228Z,6.60
2023-02-19T05:36:17.199Z,5.00
2023-02-19T05:38:51.158Z,6.50
2023-02-19T05:41:24.700Z,6.20
2023-02-19T05:43:57.568Z,8.90
2023-02-19T05:46:31.537Z,6.10
2023-02-19T05:49:04.778Z,6.50
2023-02-19T05:51:37.689Z,6.30
2023-02-19T05:54:10.537Z,7.30
2023-02-19T05:56:43.928Z,6.10
2023-02-19T05:59:19.867Z,6.10
2023-02-19T06:01:54.276Z,5.30
2023-02-19T06:04:27.659Z,6.30
2023-02-19T06:07:03.575Z,6.20
2023-02-19T06:09:38.779Z,6.80
2023-02-19T06:12:11.481Z,7.30
2023-02-19T06:14:45.565Z,6.60
2023-02-19T06:17:18.667Z,6.60
2023-02-19T06:19:51.865Z,8.80
2023-02-19T06:22:24.799Z,8.10
2023-02-19T06:25:00.319Z,6.50
2023-02-19T06:27:33.416Z,6.90
2023-02-19T06:30:12.673Z,7.50
2023-02-19T06:32:45.614Z,7.60
2023-02-19T06:35:20.425Z,8.40
2023-02-19T06:37:53.160Z,7.60
2023-02-19T06:40:25.887Z,7.70
2023-02-19T06:42:59.338Z,8.10
2023-02-19T06:45:32.795Z,7.80
2023-02-19T06:48:06.681Z,7.20
2023-02-19T06:50:39.697Z,7.30
2023-02-19T06:53:12.906Z,8.40
2023-02-19T06:55:45.967Z,9.50
2023-02-19T06:58:18.943Z,8.30
2023-02-19T07:00:51.735Z,8.70
2023-02-19T07:03:26.474Z,8.80
2023-02-19T07:06:02.258Z,8.20
2023-02-19T07:08:37.759Z,10.20
2023-02-19T07:11:11.163Z,9.00
2023-02-19T07:13:44.213Z,8.30
2023-02-19T07:16:18.253Z,9.00
2023-02-19T07:18:50.890Z,8.00
2023-02-19T07:21:26.786Z,9.10
2023-02-19T07:24:00.407Z,9.50
2023-02-19T07:26:39.034Z,9.90
2023-02-19T07:29:12.539Z,11.20
2023-02-19T07:31:46.436Z,11.40
2023-02-19T07:34:19.718Z,11.30
2023-02-19T07:36:52.454Z,10.30
2023-02-19T07:39:25.212Z,8.70
2023-02-19T07:41:58.857Z,8.40
2023-02-19T07:44:33.646Z,9.80
2023-02-19T07:47:07.638Z,8.40
2023-02-19T07:49:41.382Z,8.50
2023-02-19T07:52:14.194Z,8.80
2023-02-19T07:54:47.001Z,7.90
2023-02-19T07:57:20.263Z,8.70
2023-02-19T07:59:55.780Z,10.00
2023-02-19T08:02:46.560Z,9.20
2023-02-19T08:05:20.135Z,9.60
2023-02-19T08:07:58.194Z,7.50
2023-02-19T08:10:48.608Z,8.50
2023-02-19T08:13:25.784Z,8.90
2023-02-19T08:16:18.458Z,9.40
2023-02-19T08:18:57.337Z,9.00
2023-02-19T08:21:30.755Z,8.50
2023-02-19T08:24:07.220Z,8.00
2023-02-19T08:26:40.620Z,8.70
2023-02-19T08:29:13.520Z,8.40
2023-02-19T08:31:47.432Z,7.80
2023-02-19T08:34:21.768Z,7.90
2023-02-19T08:36:55.312Z,8.40
2023-02-19T08:39:28.586Z,8.10
2023-02-19T08:42:03.560Z,8.70
2023-02-19T08:44:37.400Z,8.10
2023-02-19T08:47:11.486Z,8.90
2023-02-19T08:49:44.595Z,7.60
2023-02-19T08:52:18.644Z,8.50
2023-02-19T08:54:51.309Z,8.20
2023-02-19T08:57:27.320Z,8.70
2023-02-19T09:00:00.729Z,8.80
2023-02-19T09:02:34.171Z,8.30
2023-02-19T09:05:07.755Z,7.90
2023-02-19T09:07:40.936Z,7.80
2023-02-19T09:10:15.236Z,8.20
2023-02-19T09:12:56.981Z,7.60
2023-02-19T09:15:32.691Z,7.60
2023-02-19T09:18:05.746Z,8.50
2023-02-19T09:20:38.540Z,8.10
2023-02-19T09:23:11.695Z,7.80
2023-02-19T09:25:44.805Z,7.60
2023-02-19T09:28:18.174Z,7.80
2023-02-19T09:30:51.492Z,7.30
2023-02-19T09:33:24.625Z,7.40
2023-02-19T09:35:57.545Z,6.40
2023-02-19T09:38:31.204Z,7.00
2023-02-19T09:41:09.823Z,7.20
2023-02-19T09:43:42.928Z,7.40
2023-02-19T09:46:25.293Z,8.20
2023-02-19T09:49:04.329Z,7.20
2023-02-19T09:51:39.851Z,7.30
2023-02-19T09:54:16.626Z,7.00
2023-02-19T09:56:49.718Z,7.10
2023-02-19T09:59:28.695Z,6.60
2023-02-19T10:02:04.428Z,6.80
2023-02-19T10:04:37.234Z,8.10
2023-02-19T10:07:13.551Z,5.90
2023-02-19T10:09:48.101Z,7.10
2023-02-19T10:12:24.473Z,6.40
2023-02-19T10:14:59.645Z,6.60
2023-02-19T10:17:35.822Z,6.60
2023-02-19T10:20:11.015Z,6.50
2023-02-19T10:22:48.954Z,6.20
2023-02-19T10:25:22.346Z,5.70
2023-02-19T10:27:55.257Z,6.20
2023-02-19T10:30:29.733Z,7.10
2023-02-19T10:33:06.229Z,7.40
2023-02-19T10:35:40.529Z,6.70
2023-02-19T10:38:17.400Z,6.40
2023-02-19T10:40:50.366Z,6.30
2023-02-19T10:43:32.053Z,7.30
2023-02-19T10:46:07.456Z,6.20
2023-02-19T10:48:52.831Z,6.60
2023-02-19T10:51:33.611Z,6.80
2023-02-19T10:54:17.152Z,6.60
2023-02-19T10:56:49.918Z,5.50
2023-02-19T10:59:28.714Z,5.50
2023-02-19T11:02:03.074Z,5.30
2023-02-19T11:04:38.498Z,4.90
2023-02-19T11:07:15.666Z,5.60
2023-02-19T11:09:48.706Z,6.10
2023-02-19T11:12:28.599Z,6.00
2023-02-19T11:15:02.406Z,4.70
2023-02-19T11:17:36.654Z,4.80
2023-02-19T11:20:12.832Z,4.30
2023-02-19T11:22:47.668Z,4.90
2023-02-19T11:25:26.071Z,4.40
2023-02-19T11:28:07.337Z,4.40
2023-02-19T11:30:44.139Z,4.80
2023-02-19T11:33:29.067Z,4.30
2023-02-19T11:36:25.860Z,5.60
2023-02-19T11:38:59.929Z,5.00
2023-02-19T11:41:43.896Z,4.50
2023-02-19T11:44:26.288Z,5.70
2023-02-19T11:47:18.180Z,4.80
2023-02-19T11:49:53.515Z,6.10
2023-02-19T11:52:31.617Z,4.90
2023-02-19T11:55:09.189Z,4.80
2023-02-19T11:57:47.932Z,4.50
2023-02-19T12:00:26.090Z,4.80
2023-02-19T12:03:21.436Z,5.00
2023-02-19T12:06:04.577Z,5.30
2023-02-19T12:08:49.980Z,4.20
2023-02-19T12:11:31.382Z,4.10
2023-02-19T12:14:21.388Z,3.50
2023-02-19T12:16:56.441Z,5.00
2023-02-19T12:19:39.530Z,5.20
2023-02-19T12:22:28.175Z,5.10
2023-02-19T12:25:26.544Z,5.10
2023-02-19T12:28:06.403Z,4.90
2023-02-19T12:30:48.904Z,5.90
2023-02-19T12:33:46.230Z,5.10
2023-02-19T12:36:25.004Z,4.90
2023-02-19T12:39:02.881Z,5.80
2023-02-19T12:41:40.273Z,4.90
2023-02-19T12:44:15.384Z,4.70
2023-02-19T12:46:50.465Z,5.00
2023-02-19T12:49:27.937Z,5.70
2023-02-19T12:52:02.119Z,4.80
2023-02-19T12:54:38.458Z,5.70
2023-02-19T12:57:14.273Z,5.90
2023-02-19T12:59:50.258Z,5.20
2023-02-19T13:02:25.641Z,5.10
2023-02-19T13:05:03.383Z,4.80
2023-02-19T13:07:38.020Z,5.40
2023-02-19T13:10:23.460Z,5.20
2023-02-19T13:12:56.150Z,5.80
2023-02-19T13:15:32.963Z,5.30
2023-02-19T13:18:06.643Z,5.30
2023-02-19T13:20:40.657Z,5.10
2023-02-19T13:23:32.426Z,4.20
2023-02-19T13:26:15.792Z,5.40
2023-02-19T13:28:59.670Z,4.60
2023-02-19T13:32:06.697Z,5.80
2023-02-19T13:34:49.453Z,4.90
2023-02-19T13:37:22.309Z,5.30
2023-02-19T13:39:55.960Z,5.20
2023-02-19T13:42:30.031Z,5.90
2023-02-19T13:45:03.207Z,4.70
2023-02-19T13:48:00.078Z,4.30
2023-02-19T13:50:33.767Z,4.70
2023-02-19T13:53:09.619Z,5.00
2023-02-19T13:55:53.589Z,5.20
2023-02-19T13:58:56.144Z,4.30
2023-02-19T14:02:17.891Z,5.60
2023-02-19T14:04:57.464Z,5.90
2023-02-19T14:07:52.841Z,6.10
2023-02-19T14:10:58.494Z,5.60
2023-02-19T14:14:06.900Z,6.20
2023-02-19T14:17:05.006Z,5.70
2023-02-19T14:20:04.583Z,5.70
2023-02-19T14:23:11.412Z,6.70
2023-02-19T14:25:56.101Z,6.90
2023-02-19T14:28:37.276Z,7.00
2023-02-19T14:31:18.335Z,7.10
2023-02-19T14:33:53.043Z,7.10
2023-02-19T14:36:44.359Z,6.10
2023-02-19T14:39:18.618Z,6.40
2023-02-19T14:41:52.479Z,5.90
2023-02-19T14:44:26.734Z,5.90
2023-02-19T14:47:02.115Z,5.80
2023-02-19T14:49:42.764Z,6.30
2023-02-19T14:52:18.069Z,5.50
2023-02-19T14:54:53.293Z,7.20
2023-02-19T14:57:28.980Z,7.30
2023-02-19T15:00:05.763Z,8.40
2023-02-19T15:02:46.402Z,7.50
2023-02-19T15:05:20.468Z,7.70
2023-02-19T15:07:56.926Z,7.10
2023-02-19T15:10:31.229Z,6.50
2023-02-19T15:13:06.122Z,5.80
2023-02-19T15:15:42.726Z,5.70
2023-02-19T15:18:24.602Z,5.80
2023-02-19T15:21:08.533Z,5.40
2023-02-19T15:23:41.378Z,5.90
2023-02-19T15:26:20.966Z,5.30
2023-02-19T15:29:02.236Z,6.20
2023-02-19T15:31:35.623Z,5.70
2023-02-19T15:34:16.071Z,5.60
2023-02-19T15:36:49.542Z,6.20
2023-02-19T15:39:24.380Z,5.70
2023-02-19T15:42:02.073Z,5.80
2023-02-19T15:44:48.323Z,7.10
2023-02-19T15:47:25.724Z,5.40
2023-02-19T15:50:00.672Z,6.30
2023-02-19T15:52:37.679Z,6.10
2023-02-19T15:55:24.543Z,6.00
2023-02-19T15:57:58.966Z,5.90
2023-02-19T16:00:35.537Z,6.50
2023-02-19T16:03:09.775Z,6.70
2023-02-19T16:05:42.826Z,6.70
2023-02-19T16:08:23.905Z,7.20
2023-02-19T16:10:58.415Z,6.40
2023-02-19T16:13:32.518Z,6.60
2023-02-19T16:16:15.309Z,6.80
2023-02-19T16:18:49.134Z,6.30
2023-02-19T16:21:25.834Z,6.30
2023-02-19T16:24:01.121Z,7.20
2023-02-19T16:26:35.412Z,6.50
2023-02-19T16:29:14.065Z,5.80
2023-02-19T16:31:52.429Z,6.00
2023-02-19T16:34:40.956Z,6.30
2023-02-19T16:37:35.118Z,7.00
2023-02-19T16:40:52.730Z,6.50
2023-02-19T16:43:31.618Z,7.10
2023-02-19T16:46:04.605Z,7.50
2023-02-19T16:48:37.549Z,8.30
2023-02-19T16:51:23.719Z,7.60
2023-02-19T16:53:57.001Z,8.20
2023-02-19T16:56:31.479Z,8.40
2023-02-19T16:59:06.159Z,8.20
2023-02-19T17:01:39.093Z,6.70
2023-02-19T17:04:16.191Z,8.40
2023-02-19T17:06:49.683Z,9.00
2023-02-19T17:09:22.939Z,8.60
2023-02-19T17:11:56.263Z,9.00
2023-02-19T17:14:30.428Z,7.00
2023-02-19T17:17:03.736Z,7.50
2023-02-19T17:19:37.382Z,8.90
2023-02-19T17:22:14.081Z,7.50
2023-02-19T17:24:48.519Z,6.90
2023-02-19T17:27:21.713Z,8.90
2023-02-19T17:29:54.785Z,8.60
2023-02-19T17:32:28.256Z,9.40
2023-02-19T17:35:01.626Z,8.20
2023-02-19T17:37:34.464Z,9.60
2023-02-19T17:40:18.828Z,10.40
2023-02-19T17:42:57.310Z,10.30
2023-02-19T17:45:32.628Z,11.00
2023-02-19T17:48:06.911Z,9.10
2023-02-19T17:50:40.387Z,12.60
2023-02-19T17:53:15.083Z,10.40
2023-02-19T17:55:47.851Z,9.20
2023-02-19T17:58:22.384Z,10.70
2023-02-19T18:00:56.456Z,10.20
2023-02-19T18:03:31.052Z,9.50
2023-02-19T18:06:03.816Z,10.90
2023-02-19T18:08:37.931Z,11.10
2023-02-19T18:11:11.245Z,11.30
2023-02-19T18:13:44.642Z,11.90
2023-02-19T18:16:18.009Z,10.70
2023-02-19T18:18:50.894Z,11.90
2023-02-19T18:21:24.723Z,10.30
2023-02-19T18:23:57.392Z,10.70
2023-02-19T18:26:31.014Z,11.20
2023-02-19T18:29:03.954Z,11.50
2023-02-19T18:31:38.405Z,11.70
2023-02-19T18:34:18.624Z,12.20
2023-02-19T18:36:55.612Z,12.70
2023-02-19T18:39:29.689Z,11.00
2023-02-19T18:42:05.268Z,11.60
2023-02-19T18:44:39.141Z,11.70
2023-02-19T18:47:12.841Z,12.60
2023-02-19T18:49:48.583Z,13.00
2023-02-19T18:52:24.031Z,12.10
2023-02-19T18:54:57.657Z,11.20
2023-02-19T18:57:30.840Z,11.70
2023-02-19T19:00:03.869Z,11.90
2023-02-19T19:02:48.720Z,11.00
2023-02-19T19:05:23.560Z,12.40
2023-02-19T19:07:59.521Z,13.60
2023-02-19T19:10:33.252Z,12.50
2023-02-19T19:13:06.778Z,12.20
2023-02-19T19:15:45.493Z,12.20
2023-02-19T19:18:19.992Z,12.80
2023-02-19T19:20:56.801Z,10.60
2023-02-19T19:23:29.401Z,10.90
2023-02-19T19:26:02.430Z,11.40
2023-02-19T19:28:36.116Z,11.20
2023-02-19T19:31:09.663Z,10.30
2023-02-19T19:33:42.428Z,10.30
2023-02-19T19:36:15.275Z,11.90
2023-02-19T19:38:48.833Z,10.90
2023-02-19T19:41:24.434Z,11.40
2023-02-19T19:43:57.761Z,11.10
2023-02-19T19:46:31.124Z,11.40
2023-02-19T19:49:05.270Z,11.70
2023-02-19T19:51:38.648Z,11.90
2023-02-19T19:54:12.648Z,10.90
2023-02-19T19:56:50.033Z,12.30
2023-02-19T19:59:23.946Z,11.70
2023-02-19T20:01:58.445Z,12.60
2023-02-19T20:04:31.779Z,12.10
2023-02-19T20:07:05.152Z,11.40
2023-02-19T20:09:38.691Z,17.70
2023-02-19T20:12:12.961Z,12.30
2023-02-19T20:14:47.879Z,12.10
2023-02-19T20:17:21.999Z,11.70
2023-02-19T20:19:55.300Z,12.50
2023-02-19T20:22:28.596Z,12.50
2023-02-19T20:25:03.355Z,10.90
2023-02-19T20:27:36.735Z,10.80
2023-02-19T20:30:12.387Z,10.90
2023-02-19T20:32:45.555Z,10.80
2023-02-19T20:35:18.585Z,10.10
2023-02-19T20:37:51.419Z,12.00
2023-02-19T20:40:27.948Z,11.90
2023-02-19T20:43:01.669Z,10.00
2023-02-19T20:45:35.659Z,10.70
2023-02-19T20:48:08.807Z,9.10
2023-02-19T20:50:41.906Z,9.30
2023-02-19T20:53:17.330Z,10.10
2023-02-19T20:55:50.222Z,10.30
2023-02-19T20:58:22.996Z,10.00
2023-02-19T21:00:56.191Z,9.40
2023-02-19T21:03:29.625Z,9.30
2023-02-19T21:06:02.351Z,9.00
2023-02-19T21:08:38.079Z,8.80
2023-02-19T21:11:11.254Z,9.20
2023-02-19T21:13:46.999Z,11.60
2023-02-19T21:16:20.559Z,8.80
2023-02-19T21:18:55.917Z,10.30
2023-02-19T21:21:31.933Z,8.80
2023-02-19T21:24:06.518Z,8.80
2023-02-19T21:26:40.557Z,8.60
2023-02-19T21:29:15.970Z,9.00
2023-02-19T21:31:51.129Z,9.90
2023-02-19T21:34:25.944Z,9.10
2023-02-19T21:36:59.987Z,9.50
2023-02-19T21:39:36.065Z,9.00
2023-02-19T21:42:09.615Z,8.10
2023-02-19T21:44:43.196Z,7.80
2023-02-19T21:47:20.457Z,8.60
2023-02-19T21:49:53.199Z,9.70
2023-02-19T21:52:34.362Z,9.90
2023-02-19T21:55:07.867Z,9.20
2023-02-19T21:57:40.771Z,10.80
2023-02-19T22:00:16.635Z,11.50
2023-02-19T22:02:49.338Z,11.10
2023-02-19T22:05:22.407Z,11.70
2023-02-19T22:07:55.428Z,13.30
2023-02-19T22:10:28.348Z,12.30
2023-02-19T22:13:01.193Z,11.30
2023-02-19T22:15:37.341Z,12.00
2023-02-19T22:18:10.344Z,12.90
2023-02-19T22:20:43.180Z,12.30
2023-02-19T22:23:16.026Z,11.50
2023-02-19T22:25:50.756Z,12.40
2023-02-19T22:28:24.532Z,10.30
2023-02-19T22:30:57.388Z,11.80
2023-02-19T22:33:30.929Z,11.20
2023-02-19T22:36:04.222Z,13.00
2023-02-19T22:38:37.492Z,13.60
2023-02-19T22:41:13.467Z,13.20
2023-02-19T22:43:47.308Z,12.50
2023-02-19T22:46:21.239Z,13.50
2023-02-19T22:48:54.107Z,12.20
2023-02-19T22:51:27.257Z,13.60
2023-02-19T22:54:02.263Z,12.60
2023-02-19T22:56:36.279Z,12.70
2023-02-19T22:59:09.074Z,11.80
2023-02-19T23:01:42.420Z,12.10
2023-02-19T23:04:15.846Z,12.50
2023-02-19T23:06:48.892Z,12.70
2023-02-19T23:09:22.768Z,12.50
2023-02-19T23:11:55.644Z,12.00
2023-02-19T23:14:28.258Z,13.80
2023-02-19T23:17:01.480Z,12.30
2023-02-19T23:19:38.259Z,12.60
2023-02-19T23:22:12.097Z,12.40
2023-02-19T23:24:44.984Z,12.80
2023-02-19T23:27:18.453Z,12.60
2023-02-19T23:29:51.512Z,13.30
2023-02-19T23:32:24.910Z,13.40
2023-02-19T23:34:57.773Z,11.60
2023-02-19T23:37:30.673Z,13.40
2023-02-19T23:40:04.261Z,13.70
2023-02-19T23:42:38.882Z,13.20
2023-02-19T23:45:12.412Z,13.60
2023-02-19T23:47:45.111Z,11.50
2023-02-19T23:50:19.432Z,14.10
2023-02-19T23:52:52.767Z,12.80
2023-02-19T23:55:25.683Z,12.80
2023-02-19T23:57:59.112Z,13.70
